Overview Statistics Trail Chart Weather Telemetry Raw packets
 

This is the latest recevied weather packets stored in our database for station/object C31FR-13. If no packets are shown the sender has not sent any weather packets the latest 10 day(s).

<< 1 2 3 4 5 6 >>
Time Temp. Humidity Pressure Rain* Wind** Luminosity Snow
1788622862 33.33° C 22% 1024.3 hPa - - - -
1788621962 33.33° C 22% 1024.3 hPa - - - -
1788620462 33.33° C 22% 1024.3 hPa - - - -
1788619862 32.78° C 23% 1024.3 hPa - - - -
1788618063 32.78° C 23% 1024.5 hPa - - - -
1788617763 32.78° C 23% 1024.6 hPa - - - -
1788617163 32.78° C 23% 1024.6 hPa - - - -
1788612362 31.11° C 25% 1025.3 hPa - - - -
1788611463 30.56° C 25% 1025.3 hPa - - - -
1788610561 30.56° C 25% 1025.5 hPa - - - -
1788609962 30° C 25% 1025.5 hPa - - - -
1788608162 30° C 26% 1025.9 hPa - - - -
1788607562 29.44° C 28% 1025.9 hPa - - - -
1788607262 28.89° C 28% 1026 hPa - - - -
1788606962 28.89° C 29% 1026.1 hPa - - - -
1788601862 25.56° C 34% 1027.2 hPa - - - -
1788601263 25° C 34% 1027.4 hPa - - - -
1788597662 23.33° C 38% 1027.6 hPa - - - -
1788595562 22.22° C 41% 1027.6 hPa - - - -
1788594661 21.67° C 42% 1027.7 hPa - - - -
1788591062 21.11° C 42% 1027.9 hPa - - - -
1788590462 21.11° C 42% 1027.9 hPa - - - -
1788590162 21.11° C 42% 1027.9 hPa - - - -
1788587763 20.56° C 40% 1027.4 hPa - - - -
1788585362 21.11° C 38% 1026.9 hPa - - - -

* Rain since midnight (hover to see other rain measurements)
** Current wind speed in m/s (hover to see current wind gust speed)